sensor_id;sensor_type;location;lat;lon;timestamp;P1;durP1;ratioP1;P2;durP2;ratioP2
36355;SDS011;22384;54.302;18.596;2024-01-30T00:02:24;52.63;;;22.38;;
36355;SDS011;22384;54.302;18.596;2024-01-30T00:04:51;46.40;;;21.75;;
36355;SDS011;22384;54.302;18.596;2024-01-30T00:07:17;47.38;;;21.55;;
36355;SDS011;22384;54.302;18.596;2024-01-30T00:09:43;52.13;;;24.05;;
36355;SDS011;22384;54.302;18.596;2024-01-30T00:12:09;42.33;;;22.05;;
36355;SDS011;22384;54.302;18.596;2024-01-30T00:14:35;52.78;;;22.08;;
36355;SDS011;22384;54.302;18.596;2024-01-30T00:17:01;50.42;;;22.83;;
36355;SDS011;22384;54.302;18.596;2024-01-30T00:19:27;48.33;;;22.17;;
36355;SDS011;22384;54.302;18.596;2024-01-30T00:21:53;50.58;;;23.17;;
36355;SDS011;22384;54.302;18.596;2024-01-30T00:24:19;51.35;;;23.23;;
36355;SDS011;22384;54.302;18.596;2024-01-30T00:26:45;57.72;;;23.98;;
36355;SDS011;22384;54.302;18.596;2024-01-30T00:29:11;53.25;;;20.77;;
36355;SDS011;22384;54.302;18.596;2024-01-30T00:31:44;57.03;;;23.42;;
36355;SDS011;22384;54.302;18.596;2024-01-30T00:34:10;51.40;;;21.52;;
36355;SDS011;22384;54.302;18.596;2024-01-30T00:36:36;45.13;;;22.50;;
36355;SDS011;22384;54.302;18.596;2024-01-30T00:39:02;50.70;;;21.77;;
36355;SDS011;22384;54.302;18.596;2024-01-30T00:41:31;46.47;;;20.85;;
36355;SDS011;22384;54.302;18.596;2024-01-30T00:43:57;49.65;;;20.55;;
36355;SDS011;22384;54.302;18.596;2024-01-30T00:46:23;43.13;;;19.15;;
36355;SDS011;22384;54.302;18.596;2024-01-30T00:48:49;44.05;;;19.13;;
36355;SDS011;22384;54.302;18.596;2024-01-30T00:51:15;45.13;;;20.42;;
36355;SDS011;22384;54.302;18.596;2024-01-30T00:53:41;54.78;;;20.52;;
36355;SDS011;22384;54.302;18.596;2024-01-30T00:56:07;51.30;;;22.35;;
36355;SDS011;22384;54.302;18.596;2024-01-30T00:58:34;51.47;;;23.58;;
36355;SDS011;22384;54.302;18.596;2024-01-30T01:01:00;61.58;;;23.90;;
36355;SDS011;22384;54.302;18.596;2024-01-30T01:03:26;55.65;;;24.48;;
36355;SDS011;22384;54.302;18.596;2024-01-30T01:05:52;57.13;;;23.25;;
36355;SDS011;22384;54.302;18.596;2024-01-30T01:08:18;56.88;;;24.50;;
36355;SDS011;22384;54.302;18.596;2024-01-30T01:10:45;57.78;;;24.67;;
36355;SDS011;22384;54.302;18.596;2024-01-30T01:13:11;56.03;;;26.63;;
36355;SDS011;22384;54.302;18.596;2024-01-30T01:15:37;59.33;;;24.13;;
36355;SDS011;22384;54.302;18.596;2024-01-30T01:18:03;47.95;;;22.85;;
36355;SDS011;22384;54.302;18.596;2024-01-30T01:20:29;56.33;;;24.15;;
36355;SDS011;22384;54.302;18.596;2024-01-30T01:22:55;52.28;;;23.02;;
36355;SDS011;22384;54.302;18.596;2024-01-30T01:25:21;49.67;;;22.92;;
36355;SDS011;22384;54.302;18.596;2024-01-30T01:27:47;53.67;;;22.98;;
36355;SDS011;22384;54.302;18.596;2024-01-30T01:30:17;54.78;;;23.95;;
36355;SDS011;22384;54.302;18.596;2024-01-30T01:32:47;52.78;;;24.17;;
36355;SDS011;22384;54.302;18.596;2024-01-30T01:35:20;55.22;;;24.75;;
36355;SDS011;22384;54.302;18.596;2024-01-30T01:37:46;57.33;;;23.85;;
36355;SDS011;22384;54.302;18.596;2024-01-30T01:40:12;59.30;;;23.60;;
36355;SDS011;22384;54.302;18.596;2024-01-30T01:42:38;77.20;;;26.70;;
36355;SDS011;22384;54.302;18.596;2024-01-30T01:45:04;68.53;;;26.48;;
36355;SDS011;22384;54.302;18.596;2024-01-30T01:47:30;58.90;;;24.25;;
36355;SDS011;22384;54.302;18.596;2024-01-30T01:49:56;51.92;;;24.85;;
36355;SDS011;22384;54.302;18.596;2024-01-30T01:52:23;53.40;;;22.83;;
36355;SDS011;22384;54.302;18.596;2024-01-30T01:54:49;54.15;;;25.08;;
36355;SDS011;22384;54.302;18.596;2024-01-30T01:57:15;55.70;;;24.10;;
36355;SDS011;22384;54.302;18.596;2024-01-30T01:59:41;53.17;;;24.73;;
36355;SDS011;22384;54.302;18.596;2024-01-30T02:02:07;49.75;;;24.13;;
36355;SDS011;22384;54.302;18.596;2024-01-30T02:04:36;58.05;;;23.98;;
36355;SDS011;22384;54.302;18.596;2024-01-30T02:07:02;54.63;;;24.58;;
36355;SDS011;22384;54.302;18.596;2024-01-30T02:09:28;64.45;;;25.38;;
36355;SDS011;22384;54.302;18.596;2024-01-30T02:11:55;62.03;;;26.35;;
36355;SDS011;22384;54.302;18.596;2024-01-30T02:14:21;59.80;;;24.27;;
36355;SDS011;22384;54.302;18.596;2024-01-30T02:16:47;59.03;;;25.40;;
36355;SDS011;22384;54.302;18.596;2024-01-30T02:19:13;52.33;;;23.83;;
36355;SDS011;22384;54.302;18.596;2024-01-30T02:21:39;56.42;;;24.83;;
36355;SDS011;22384;54.302;18.596;2024-01-30T02:24:05;52.03;;;23.85;;
36355;SDS011;22384;54.302;18.596;2024-01-30T02:26:31;53.25;;;24.73;;
36355;SDS011;22384;54.302;18.596;2024-01-30T02:28:57;60.10;;;25.80;;
36355;SDS011;22384;54.302;18.596;2024-01-30T02:31:24;49.33;;;23.45;;
36355;SDS011;22384;54.302;18.596;2024-01-30T02:33:50;49.33;;;22.50;;
36355;SDS011;22384;54.302;18.596;2024-01-30T02:36:16;55.88;;;24.30;;
36355;SDS011;22384;54.302;18.596;2024-01-30T02:38:42;52.72;;;23.17;;
36355;SDS011;22384;54.302;18.596;2024-01-30T02:41:08;55.65;;;25.10;;
36355;SDS011;22384;54.302;18.596;2024-01-30T02:43:35;54.25;;;26.23;;
36355;SDS011;22384;54.302;18.596;2024-01-30T02:46:01;54.42;;;25.08;;
36355;SDS011;22384;54.302;18.596;2024-01-30T02:48:27;54.92;;;24.45;;
36355;SDS011;22384;54.302;18.596;2024-01-30T02:50:53;46.13;;;23.65;;
36355;SDS011;22384;54.302;18.596;2024-01-30T02:53:19;48.28;;;23.58;;
36355;SDS011;22384;54.302;18.596;2024-01-30T02:55:45;54.70;;;24.92;;
36355;SDS011;22384;54.302;18.596;2024-01-30T02:58:11;49.45;;;23.75;;
36355;SDS011;22384;54.302;18.596;2024-01-30T03:00:37;54.53;;;24.48;;
36355;SDS011;22384;54.302;18.596;2024-01-30T03:03:03;49.97;;;25.63;;
36355;SDS011;22384;54.302;18.596;2024-01-30T03:05:29;54.08;;;24.90;;
36355;SDS011;22384;54.302;18.596;2024-01-30T03:07:55;53.42;;;23.85;;
36355;SDS011;22384;54.302;18.596;2024-01-30T03:10:21;51.20;;;24.50;;
36355;SDS011;22384;54.302;18.596;2024-01-30T03:12:47;55.17;;;24.48;;
36355;SDS011;22384;54.302;18.596;2024-01-30T03:15:13;57.10;;;25.55;;
36355;SDS011;22384;54.302;18.596;2024-01-30T03:17:39;47.58;;;23.48;;
36355;SDS011;22384;54.302;18.596;2024-01-30T03:20:05;52.10;;;25.00;;
36355;SDS011;22384;54.302;18.596;2024-01-30T03:22:31;59.00;;;23.95;;
36355;SDS011;22384;54.302;18.596;2024-01-30T03:24:58;50.78;;;23.20;;
36355;SDS011;22384;54.302;18.596;2024-01-30T03:27:24;53.05;;;23.80;;
36355;SDS011;22384;54.302;18.596;2024-01-30T03:29:50;51.95;;;25.35;;
36355;SDS011;22384;54.302;18.596;2024-01-30T03:32:16;52.30;;;25.35;;
36355;SDS011;22384;54.302;18.596;2024-01-30T03:34:42;56.15;;;24.38;;
36355;SDS011;22384;54.302;18.596;2024-01-30T03:37:08;48.83;;;23.95;;
36355;SDS011;22384;54.302;18.596;2024-01-30T03:39:34;54.10;;;22.80;;
36355;SDS011;22384;54.302;18.596;2024-01-30T03:42:01;51.72;;;23.25;;
36355;SDS011;22384;54.302;18.596;2024-01-30T03:44:27;53.20;;;23.83;;
36355;SDS011;22384;54.302;18.596;2024-01-30T03:46:53;50.85;;;22.40;;
36355;SDS011;22384;54.302;18.596;2024-01-30T03:49:19;48.35;;;24.35;;
36355;SDS011;22384;54.302;18.596;2024-01-30T03:51:45;46.38;;;23.60;;
36355;SDS011;22384;54.302;18.596;2024-01-30T03:54:12;60.78;;;24.50;;
36355;SDS011;22384;54.302;18.596;2024-01-30T03:56:39;54.35;;;24.90;;
36355;SDS011;22384;54.302;18.596;2024-01-30T03:59:05;52.63;;;24.05;;
36355;SDS011;22384;54.302;18.596;2024-01-30T04:01:31;56.25;;;24.60;;
36355;SDS011;22384;54.302;18.596;2024-01-30T04:03:57;55.45;;;23.83;;
36355;SDS011;22384;54.302;18.596;2024-01-30T04:06:23;56.88;;;24.73;;
36355;SDS011;22384;54.302;18.596;2024-01-30T04:08:49;53.10;;;25.10;;
36355;SDS011;22384;54.302;18.596;2024-01-30T04:11:15;63.78;;;25.90;;
36355;SDS011;22384;54.302;18.596;2024-01-30T04:13:43;56.13;;;26.58;;
36355;SDS011;22384;54.302;18.596;2024-01-30T04:16:18;55.97;;;24.45;;
36355;SDS011;22384;54.302;18.596;2024-01-30T04:18:45;59.03;;;25.40;;
36355;SDS011;22384;54.302;18.596;2024-01-30T04:21:11;55.38;;;24.33;;
36355;SDS011;22384;54.302;18.596;2024-01-30T04:23:37;54.85;;;24.58;;
36355;SDS011;22384;54.302;18.596;2024-01-30T04:26:03;56.80;;;25.48;;
36355;SDS011;22384;54.302;18.596;2024-01-30T04:28:29;56.22;;;24.63;;
36355;SDS011;22384;54.302;18.596;2024-01-30T04:30:55;53.20;;;24.70;;
36355;SDS011;22384;54.302;18.596;2024-01-30T04:33:21;50.47;;;23.30;;
36355;SDS011;22384;54.302;18.596;2024-01-30T04:35:47;56.22;;;24.65;;
36355;SDS011;22384;54.302;18.596;2024-01-30T04:38:13;57.35;;;24.42;;
36355;SDS011;22384;54.302;18.596;2024-01-30T04:40:40;51.22;;;24.15;;
36355;SDS011;22384;54.302;18.596;2024-01-30T04:43:06;53.60;;;23.73;;
36355;SDS011;22384;54.302;18.596;2024-01-30T04:45:32;54.00;;;24.58;;
36355;SDS011;22384;54.302;18.596;2024-01-30T04:47:58;49.45;;;23.95;;
36355;SDS011;22384;54.302;18.596;2024-01-30T04:50:24;50.67;;;22.40;;
36355;SDS011;22384;54.302;18.596;2024-01-30T04:52:51;58.65;;;24.63;;
36355;SDS011;22384;54.302;18.596;2024-01-30T04:55:17;57.60;;;24.67;;
36355;SDS011;22384;54.302;18.596;2024-01-30T04:57:43;64.18;;;25.85;;
36355;SDS011;22384;54.302;18.596;2024-01-30T05:00:10;81.55;;;29.60;;
36355;SDS011;22384;54.302;18.596;2024-01-30T05:02:36;70.57;;;28.80;;
36355;SDS011;22384;54.302;18.596;2024-01-30T05:05:02;75.40;;;29.73;;
36355;SDS011;22384;54.302;18.596;2024-01-30T05:07:28;74.90;;;26.98;;
36355;SDS011;22384;54.302;18.596;2024-01-30T05:09:54;58.60;;;24.55;;
36355;SDS011;22384;54.302;18.596;2024-01-30T05:12:20;283.55;;;94.68;;
36355;SDS011;22384;54.302;18.596;2024-01-30T05:14:46;476.65;;;205.57;;
36355;SDS011;22384;54.302;18.596;2024-01-30T05:17:12;160.13;;;73.43;;
36355;SDS011;22384;54.302;18.596;2024-01-30T05:19:38;86.07;;;40.05;;
36355;SDS011;22384;54.302;18.596;2024-01-30T05:22:04;64.68;;;30.75;;
36355;SDS011;22384;54.302;18.596;2024-01-30T05:24:30;58.60;;;27.88;;
36355;SDS011;22384;54.302;18.596;2024-01-30T05:26:57;60.47;;;27.13;;
36355;SDS011;22384;54.302;18.596;2024-01-30T05:29:23;53.42;;;24.23;;
36355;SDS011;22384;54.302;18.596;2024-01-30T05:31:49;56.42;;;26.50;;
36355;SDS011;22384;54.302;18.596;2024-01-30T05:34:16;57.42;;;26.67;;
36355;SDS011;22384;54.302;18.596;2024-01-30T05:36:42;65.38;;;26.10;;
36355;SDS011;22384;54.302;18.596;2024-01-30T05:39:08;54.58;;;25.58;;
36355;SDS011;22384;54.302;18.596;2024-01-30T05:41:34;61.67;;;29.42;;
36355;SDS011;22384;54.302;18.596;2024-01-30T05:44:00;58.33;;;26.70;;
36355;SDS011;22384;54.302;18.596;2024-01-30T05:46:26;58.13;;;26.30;;
36355;SDS011;22384;54.302;18.596;2024-01-30T05:48:52;58.25;;;27.67;;
36355;SDS011;22384;54.302;18.596;2024-01-30T05:51:18;55.53;;;25.45;;
36355;SDS011;22384;54.302;18.596;2024-01-30T05:53:44;56.65;;;25.85;;
36355;SDS011;22384;54.302;18.596;2024-01-30T05:56:10;63.50;;;26.00;;
36355;SDS011;22384;54.302;18.596;2024-01-30T05:58:36;53.85;;;25.35;;
36355;SDS011;22384;54.302;18.596;2024-01-30T06:01:03;61.63;;;25.25;;
36355;SDS011;22384;54.302;18.596;2024-01-30T06:03:33;57.05;;;24.42;;
36355;SDS011;22384;54.302;18.596;2024-01-30T06:05:59;59.40;;;26.95;;
36355;SDS011;22384;54.302;18.596;2024-01-30T06:08:25;55.67;;;24.90;;
36355;SDS011;22384;54.302;18.596;2024-01-30T06:10:51;59.60;;;25.88;;
36355;SDS011;22384;54.302;18.596;2024-01-30T06:13:17;56.90;;;24.55;;
36355;SDS011;22384;54.302;18.596;2024-01-30T06:15:43;56.78;;;25.90;;
36355;SDS011;22384;54.302;18.596;2024-01-30T06:18:09;55.35;;;24.13;;
36355;SDS011;22384;54.302;18.596;2024-01-30T06:20:35;52.40;;;25.50;;
36355;SDS011;22384;54.302;18.596;2024-01-30T06:23:01;63.35;;;28.08;;
36355;SDS011;22384;54.302;18.596;2024-01-30T06:25:27;61.65;;;26.38;;
36355;SDS011;22384;54.302;18.596;2024-01-30T06:27:54;57.25;;;25.38;;
36355;SDS011;22384;54.302;18.596;2024-01-30T06:30:20;73.38;;;30.98;;
36355;SDS011;22384;54.302;18.596;2024-01-30T06:32:46;64.43;;;28.27;;
36355;SDS011;22384;54.302;18.596;2024-01-30T06:35:12;66.85;;;29.27;;
36355;SDS011;22384;54.302;18.596;2024-01-30T06:37:38;67.75;;;27.25;;
36355;SDS011;22384;54.302;18.596;2024-01-30T06:40:04;63.58;;;26.77;;
36355;SDS011;22384;54.302;18.596;2024-01-30T06:42:30;57.33;;;24.45;;
36355;SDS011;22384;54.302;18.596;2024-01-30T06:44:56;52.80;;;22.85;;
36355;SDS011;22384;54.302;18.596;2024-01-30T06:47:22;56.00;;;25.88;;
36355;SDS011;22384;54.302;18.596;2024-01-30T06:49:48;46.05;;;22.67;;
36355;SDS011;22384;54.302;18.596;2024-01-30T06:52:14;72.40;;;29.20;;
36355;SDS011;22384;54.302;18.596;2024-01-30T06:54:40;556.55;;;132.40;;
36355;SDS011;22384;54.302;18.596;2024-01-30T06:57:06;1045.38;;;275.40;;
36355;SDS011;22384;54.302;18.596;2024-01-30T06:59:36;1999.90;;;579.72;;
36355;SDS011;22384;54.302;18.596;2024-01-30T07:02:08;1999.90;;;788.15;;
36355;SDS011;22384;54.302;18.596;2024-01-30T07:04:34;1544.47;;;628.30;;
36355;SDS011;22384;54.302;18.596;2024-01-30T07:07:02;852.95;;;394.20;;
36355;SDS011;22384;54.302;18.596;2024-01-30T07:09:29;219.48;;;97.18;;
36355;SDS011;22384;54.302;18.596;2024-01-30T07:11:55;161.27;;;56.28;;
36355;SDS011;22384;54.302;18.596;2024-01-30T07:14:23;149.15;;;52.72;;
36355;SDS011;22384;54.302;18.596;2024-01-30T07:16:49;124.43;;;46.10;;
36355;SDS011;22384;54.302;18.596;2024-01-30T07:19:15;128.63;;;51.10;;
36355;SDS011;22384;54.302;18.596;2024-01-30T07:21:41;221.70;;;80.40;;
36355;SDS011;22384;54.302;18.596;2024-01-30T07:24:08;473.77;;;153.90;;
36355;SDS011;22384;54.302;18.596;2024-01-30T07:26:34;400.17;;;146.43;;
36355;SDS011;22384;54.302;18.596;2024-01-30T07:29:00;190.40;;;72.80;;
36355;SDS011;22384;54.302;18.596;2024-01-30T07:31:27;315.83;;;125.28;;
36355;SDS011;22384;54.302;18.596;2024-01-30T07:33:53;419.25;;;196.43;;
36355;SDS011;22384;54.302;18.596;2024-01-30T07:36:19;110.22;;;54.85;;
36355;SDS011;22384;54.302;18.596;2024-01-30T07:38:45;88.93;;;42.35;;
36355;SDS011;22384;54.302;18.596;2024-01-30T07:41:11;88.90;;;41.60;;
36355;SDS011;22384;54.302;18.596;2024-01-30T07:43:38;91.30;;;42.75;;
36355;SDS011;22384;54.302;18.596;2024-01-30T07:46:04;93.13;;;43.15;;
36355;SDS011;22384;54.302;18.596;2024-01-30T07:48:31;86.75;;;39.80;;
36355;SDS011;22384;54.302;18.596;2024-01-30T07:50:58;68.97;;;33.75;;
36355;SDS011;22384;54.302;18.596;2024-01-30T07:53:24;81.32;;;33.15;;
36355;SDS011;22384;54.302;18.596;2024-01-30T07:55:51;85.07;;;35.53;;
36355;SDS011;22384;54.302;18.596;2024-01-30T07:58:17;77.05;;;35.15;;
36355;SDS011;22384;54.302;18.596;2024-01-30T08:00:44;64.28;;;28.98;;
36355;SDS011;22384;54.302;18.596;2024-01-30T08:03:10;59.10;;;24.55;;
36355;SDS011;22384;54.302;18.596;2024-01-30T08:05:36;45.95;;;22.88;;
36355;SDS011;22384;54.302;18.596;2024-01-30T08:08:04;54.35;;;26.38;;
36355;SDS011;22384;54.302;18.596;2024-01-30T08:10:30;72.38;;;32.55;;
36355;SDS011;22384;54.302;18.596;2024-01-30T08:12:56;127.78;;;56.58;;
36355;SDS011;22384;54.302;18.596;2024-01-30T08:15:22;71.90;;;34.58;;
36355;SDS011;22384;54.302;18.596;2024-01-30T08:17:48;52.33;;;26.52;;
36355;SDS011;22384;54.302;18.596;2024-01-30T08:20:14;56.58;;;25.33;;
36355;SDS011;22384;54.302;18.596;2024-01-30T08:22:41;55.92;;;24.75;;
36355;SDS011;22384;54.302;18.596;2024-01-30T08:25:07;58.90;;;26.52;;
36355;SDS011;22384;54.302;18.596;2024-01-30T08:27:34;69.75;;;31.50;;
36355;SDS011;22384;54.302;18.596;2024-01-30T08:30:03;73.90;;;33.08;;
36355;SDS011;22384;54.302;18.596;2024-01-30T08:32:29;69.05;;;29.88;;
36355;SDS011;22384;54.302;18.596;2024-01-30T08:34:55;71.55;;;30.50;;
36355;SDS011;22384;54.302;18.596;2024-01-30T08:37:21;86.88;;;38.47;;
36355;SDS011;22384;54.302;18.596;2024-01-30T08:39:47;76.35;;;31.90;;
36355;SDS011;22384;54.302;18.596;2024-01-30T08:42:13;53.80;;;25.73;;
36355;SDS011;22384;54.302;18.596;2024-01-30T08:44:39;53.67;;;23.95;;
36355;SDS011;22384;54.302;18.596;2024-01-30T08:47:05;65.88;;;28.38;;
36355;SDS011;22384;54.302;18.596;2024-01-30T08:49:31;91.45;;;46.22;;
36355;SDS011;22384;54.302;18.596;2024-01-30T08:51:57;64.82;;;31.60;;
36355;SDS011;22384;54.302;18.596;2024-01-30T08:54:23;63.53;;;29.15;;
36355;SDS011;22384;54.302;18.596;2024-01-30T08:56:49;43.53;;;23.92;;
36355;SDS011;22384;54.302;18.596;2024-01-30T08:59:17;42.40;;;22.25;;
36355;SDS011;22384;54.302;18.596;2024-01-30T09:01:44;50.65;;;21.95;;
36355;SDS011;22384;54.302;18.596;2024-01-30T09:04:11;50.60;;;23.73;;
36355;SDS011;22384;54.302;18.596;2024-01-30T09:06:37;47.13;;;21.08;;
36355;SDS011;22384;54.302;18.596;2024-01-30T09:09:04;49.13;;;21.60;;
36355;SDS011;22384;54.302;18.596;2024-01-30T09:11:30;41.55;;;19.80;;
36355;SDS011;22384;54.302;18.596;2024-01-30T09:13:57;44.00;;;21.05;;
36355;SDS011;22384;54.302;18.596;2024-01-30T09:16:23;42.35;;;19.08;;
36355;SDS011;22384;54.302;18.596;2024-01-30T09:18:49;39.05;;;19.42;;
36355;SDS011;22384;54.302;18.596;2024-01-30T09:21:15;46.85;;;20.42;;
36355;SDS011;22384;54.302;18.596;2024-01-30T09:23:41;38.40;;;18.00;;
36355;SDS011;22384;54.302;18.596;2024-01-30T09:26:07;44.95;;;20.80;;
36355;SDS011;22384;54.302;18.596;2024-01-30T09:28:33;56.58;;;21.73;;
36355;SDS011;22384;54.302;18.596;2024-01-30T09:30:59;55.17;;;25.70;;
36355;SDS011;22384;54.302;18.596;2024-01-30T09:33:25;57.78;;;24.27;;
36355;SDS011;22384;54.302;18.596;2024-01-30T09:35:51;53.67;;;23.58;;
36355;SDS011;22384;54.302;18.596;2024-01-30T09:38:17;42.55;;;21.23;;
36355;SDS011;22384;54.302;18.596;2024-01-30T09:40:44;50.65;;;20.73;;
36355;SDS011;22384;54.302;18.596;2024-01-30T09:43:11;41.17;;;19.73;;
36355;SDS011;22384;54.302;18.596;2024-01-30T09:48:07;41.33;;;18.90;;
36355;SDS011;22384;54.302;18.596;2024-01-30T09:50:33;39.40;;;20.08;;
36355;SDS011;22384;54.302;18.596;2024-01-30T09:53:01;51.47;;;20.73;;
36355;SDS011;22384;54.302;18.596;2024-01-30T09:55:27;42.53;;;19.58;;
36355;SDS011;22384;54.302;18.596;2024-01-30T09:57:53;45.38;;;20.35;;
36355;SDS011;22384;54.302;18.596;2024-01-30T10:00:20;47.83;;;22.92;;
36355;SDS011;22384;54.302;18.596;2024-01-30T10:02:47;51.22;;;23.30;;
36355;SDS011;22384;54.302;18.596;2024-01-30T10:05:15;50.55;;;21.02;;
36355;SDS011;22384;54.302;18.596;2024-01-30T10:07:49;47.17;;;23.00;;
36355;SDS011;22384;54.302;18.596;2024-01-30T10:10:15;51.97;;;23.20;;
36355;SDS011;22384;54.302;18.596;2024-01-30T10:12:41;51.58;;;22.25;;
36355;SDS011;22384;54.302;18.596;2024-01-30T10:15:07;47.10;;;22.45;;
36355;SDS011;22384;54.302;18.596;2024-01-30T10:17:34;46.83;;;22.48;;
36355;SDS011;22384;54.302;18.596;2024-01-30T10:20:06;40.67;;;19.65;;
36355;SDS011;22384;54.302;18.596;2024-01-30T10:22:33;42.42;;;18.63;;
36355;SDS011;22384;54.302;18.596;2024-01-30T10:25:00;45.13;;;20.27;;
36355;SDS011;22384;54.302;18.596;2024-01-30T10:27:26;43.38;;;19.58;;
36355;SDS011;22384;54.302;18.596;2024-01-30T10:29:52;42.80;;;18.70;;
36355;SDS011;22384;54.302;18.596;2024-01-30T10:32:19;36.17;;;17.90;;
36355;SDS011;22384;54.302;18.596;2024-01-30T10:34:46;51.80;;;18.13;;
36355;SDS011;22384;54.302;18.596;2024-01-30T10:37:12;42.75;;;18.77;;
36355;SDS011;22384;54.302;18.596;2024-01-30T10:39:41;45.33;;;18.70;;
36355;SDS011;22384;54.302;18.596;2024-01-30T10:42:10;39.50;;;18.40;;
36355;SDS011;22384;54.302;18.596;2024-01-30T10:44:39;39.00;;;17.53;;
36355;SDS011;22384;54.302;18.596;2024-01-30T10:47:11;46.78;;;19.15;;
36355;SDS011;22384;54.302;18.596;2024-01-30T10:49:41;37.97;;;18.48;;
36355;SDS011;22384;54.302;18.596;2024-01-30T10:52:11;41.35;;;17.75;;
36355;SDS011;22384;54.302;18.596;2024-01-30T10:54:39;35.42;;;16.88;;
36355;SDS011;22384;54.302;18.596;2024-01-30T10:57:05;42.35;;;17.10;;
36355;SDS011;22384;54.302;18.596;2024-01-30T10:59:32;38.58;;;18.10;;
36355;SDS011;22384;54.302;18.596;2024-01-30T11:01:58;37.85;;;16.60;;
36355;SDS011;22384;54.302;18.596;2024-01-30T11:04:25;36.53;;;16.73;;
36355;SDS011;22384;54.302;18.596;2024-01-30T11:06:51;34.97;;;16.20;;
36355;SDS011;22384;54.302;18.596;2024-01-30T11:09:19;35.35;;;16.20;;
36355;SDS011;22384;54.302;18.596;2024-01-30T11:11:49;35.33;;;17.13;;
36355;SDS011;22384;54.302;18.596;2024-01-30T11:14:15;32.90;;;16.20;;
36355;SDS011;22384;54.302;18.596;2024-01-30T11:16:41;32.47;;;15.60;;
36355;SDS011;22384;54.302;18.596;2024-01-30T11:19:10;36.75;;;16.98;;
36355;SDS011;22384;54.302;18.596;2024-01-30T11:21:43;38.20;;;16.98;;
36355;SDS011;22384;54.302;18.596;2024-01-30T11:24:09;39.40;;;17.33;;
36355;SDS011;22384;54.302;18.596;2024-01-30T11:26:35;36.00;;;17.40;;
36355;SDS011;22384;54.302;18.596;2024-01-30T11:29:06;36.38;;;18.50;;
36355;SDS011;22384;54.302;18.596;2024-01-30T11:31:34;37.80;;;17.38;;
36355;SDS011;22384;54.302;18.596;2024-01-30T11:34:00;36.83;;;18.67;;
36355;SDS011;22384;54.302;18.596;2024-01-30T11:36:27;44.20;;;18.27;;
36355;SDS011;22384;54.302;18.596;2024-01-30T11:38:53;37.28;;;18.00;;
36355;SDS011;22384;54.302;18.596;2024-01-30T11:41:20;34.47;;;18.33;;
36355;SDS011;22384;54.302;18.596;2024-01-30T11:43:52;36.75;;;17.20;;
36355;SDS011;22384;54.302;18.596;2024-01-30T11:46:19;37.45;;;17.17;;
36355;SDS011;22384;54.302;18.596;2024-01-30T11:48:45;42.75;;;16.15;;
36355;SDS011;22384;54.302;18.596;2024-01-30T11:51:12;36.63;;;15.82;;
36355;SDS011;22384;54.302;18.596;2024-01-30T11:53:38;40.28;;;17.48;;
36355;SDS011;22384;54.302;18.596;2024-01-30T11:56:07;35.72;;;16.70;;
36355;SDS011;22384;54.302;18.596;2024-01-30T11:58:34;40.47;;;17.17;;
36355;SDS011;22384;54.302;18.596;2024-01-30T12:01:00;38.55;;;18.58;;
36355;SDS011;22384;54.302;18.596;2024-01-30T12:03:26;39.47;;;17.35;;
36355;SDS011;22384;54.302;18.596;2024-01-30T12:05:56;36.85;;;17.40;;
36355;SDS011;22384;54.302;18.596;2024-01-30T12:08:23;43.78;;;18.42;;
36355;SDS011;22384;54.302;18.596;2024-01-30T12:10:56;39.67;;;17.90;;
36355;SDS011;22384;54.302;18.596;2024-01-30T12:13:23;35.58;;;15.52;;
36355;SDS011;22384;54.302;18.596;2024-01-30T12:15:49;40.72;;;18.45;;
36355;SDS011;22384;54.302;18.596;2024-01-30T12:18:18;37.15;;;16.88;;
36355;SDS011;22384;54.302;18.596;2024-01-30T12:20:45;34.90;;;16.40;;
36355;SDS011;22384;54.302;18.596;2024-01-30T12:23:14;33.25;;;15.43;;
36355;SDS011;22384;54.302;18.596;2024-01-30T12:25:40;31.20;;;15.88;;
36355;SDS011;22384;54.302;18.596;2024-01-30T12:28:06;34.70;;;16.85;;
36355;SDS011;22384;54.302;18.596;2024-01-30T12:30:32;46.75;;;18.42;;
36355;SDS011;22384;54.302;18.596;2024-01-30T12:33:00;46.65;;;20.50;;
36355;SDS011;22384;54.302;18.596;2024-01-30T12:35:26;29.20;;;15.57;;
36355;SDS011;22384;54.302;18.596;2024-01-30T12:37:52;32.20;;;15.63;;
36355;SDS011;22384;54.302;18.596;2024-01-30T12:40:19;39.05;;;16.20;;
36355;SDS011;22384;54.302;18.596;2024-01-30T12:42:46;35.70;;;15.45;;
36355;SDS011;22384;54.302;18.596;2024-01-30T12:45:15;36.78;;;16.67;;
36355;SDS011;22384;54.302;18.596;2024-01-30T12:47:41;39.85;;;16.77;;
36355;SDS011;22384;54.302;18.596;2024-01-30T12:50:07;33.17;;;15.80;;
36355;SDS011;22384;54.302;18.596;2024-01-30T12:52:33;35.45;;;18.67;;
36355;SDS011;22384;54.302;18.596;2024-01-30T12:55:00;29.30;;;15.27;;
36355;SDS011;22384;54.302;18.596;2024-01-30T12:57:29;32.85;;;16.27;;
36355;SDS011;22384;54.302;18.596;2024-01-30T12:59:55;28.90;;;15.40;;
36355;SDS011;22384;54.302;18.596;2024-01-30T13:02:21;39.88;;;18.15;;
36355;SDS011;22384;54.302;18.596;2024-01-30T13:04:48;42.58;;;18.48;;
36355;SDS011;22384;54.302;18.596;2024-01-30T13:07:14;33.20;;;17.13;;
36355;SDS011;22384;54.302;18.596;2024-01-30T13:09:40;35.17;;;17.25;;
36355;SDS011;22384;54.302;18.596;2024-01-30T13:12:06;36.35;;;16.17;;
36355;SDS011;22384;54.302;18.596;2024-01-30T13:14:32;26.90;;;15.30;;
36355;SDS011;22384;54.302;18.596;2024-01-30T13:16:58;31.63;;;15.15;;
36355;SDS011;22384;54.302;18.596;2024-01-30T13:19:25;29.35;;;15.63;;
36355;SDS011;22384;54.302;18.596;2024-01-30T13:21:52;33.53;;;14.35;;
36355;SDS011;22384;54.302;18.596;2024-01-30T13:24:18;28.50;;;15.43;;
36355;SDS011;22384;54.302;18.596;2024-01-30T13:26:46;30.63;;;15.38;;
36355;SDS011;22384;54.302;18.596;2024-01-30T13:29:13;42.13;;;21.58;;
36355;SDS011;22384;54.302;18.596;2024-01-30T13:31:39;40.10;;;18.25;;
36355;SDS011;22384;54.302;18.596;2024-01-30T13:34:06;46.55;;;20.65;;
36355;SDS011;22384;54.302;18.596;2024-01-30T13:36:32;36.28;;;17.23;;
36355;SDS011;22384;54.302;18.596;2024-01-30T13:38:58;35.78;;;16.45;;
36355;SDS011;22384;54.302;18.596;2024-01-30T13:41:24;44.83;;;19.55;;
36355;SDS011;22384;54.302;18.596;2024-01-30T13:43:50;35.15;;;17.58;;
36355;SDS011;22384;54.302;18.596;2024-01-30T13:46:16;37.25;;;16.80;;
36355;SDS011;22384;54.302;18.596;2024-01-30T13:48:42;39.97;;;19.58;;
36355;SDS011;22384;54.302;18.596;2024-01-30T13:51:08;35.53;;;15.82;;
36355;SDS011;22384;54.302;18.596;2024-01-30T13:53:35;33.30;;;15.50;;
36355;SDS011;22384;54.302;18.596;2024-01-30T13:56:02;36.53;;;16.30;;
36355;SDS011;22384;54.302;18.596;2024-01-30T13:58:28;35.88;;;17.42;;
36355;SDS011;22384;54.302;18.596;2024-01-30T14:00:54;33.45;;;17.10;;
36355;SDS011;22384;54.302;18.596;2024-01-30T14:03:20;31.90;;;16.00;;
36355;SDS011;22384;54.302;18.596;2024-01-30T14:05:46;40.47;;;18.55;;
36355;SDS011;22384;54.302;18.596;2024-01-30T14:08:12;34.45;;;16.45;;